createdAt,value
2022-08-05T00:01:27.580Z,100794.08
2022-08-05T00:02:49.187Z,100798.2
2022-08-05T00:03:58.178Z,100795.84
2022-08-05T00:05:06.949Z,100794.16
2022-08-05T00:08:01.406Z,100796.53
2022-08-05T00:09:14.845Z,100795.59
2022-08-05T00:10:28.242Z,100796.13
2022-08-05T00:11:49.712Z,100793.59
2022-08-05T00:13:04.009Z,100795.56
2022-08-05T00:14:22.053Z,100789.84
2022-08-05T00:15:58.985Z,100793.59
2022-08-05T00:17:04.546Z,100793.52
2022-08-05T00:18:24.036Z,100793.59
2022-08-05T00:19:40.675Z,100792.77
2022-08-05T00:21:08.385Z,100792.69
2022-08-05T00:22:12.996Z,100792.69
2022-08-05T00:23:53.468Z,100793.61
2022-08-05T00:25:17.338Z,100785.88
2022-08-05T00:26:23.142Z,100786.33
2022-08-05T00:27:37.400Z,100780.23
2022-08-05T00:28:50.263Z,100785.02
2022-08-05T00:29:57.367Z,100788.53
2022-08-05T00:31:08.710Z,100783.91
2022-08-05T00:32:16.427Z,100787.25
2022-08-05T00:35:07.538Z,100785.7
2022-08-05T00:37:13.987Z,100789.84
2022-08-05T00:38:33.855Z,100788.48
2022-08-05T00:39:57.614Z,100782.77
2022-08-05T00:41:02.959Z,100783.91
2022-08-05T00:42:32.868Z,100782.56
2022-08-05T00:43:50.538Z,100786.16
2022-08-05T00:44:55.178Z,100781.3
2022-08-05T00:45:59.956Z,100787.42
2022-08-05T00:47:06.907Z,100779.16
2022-08-05T00:48:31.566Z,100782.27
2022-08-05T00:49:53.579Z,100778.72
2022-08-05T00:50:58.027Z,100779.16
2022-08-05T00:52:02.354Z,100776.67
2022-08-05T00:54:01.558Z,100776.72
2022-08-05T00:55:07.718Z,100779
2022-08-05T00:56:13.071Z,100778.39
2022-08-05T00:57:55.867Z,100778.52
2022-08-05T00:59:07.810Z,100774.55
2022-08-05T01:00:14.311Z,100784.73
2022-08-05T01:01:49.279Z,100781.7
2022-08-05T01:02:54.027Z,100776.14
2022-08-05T01:03:58.384Z,100772.67
2022-08-05T01:05:15.746Z,100777.25
2022-08-05T01:06:20.597Z,100772.5
2022-08-05T01:07:36.991Z,100772.59
2022-08-05T01:09:56.736Z,100774.79
2022-08-05T01:11:01.148Z,100773.44
2022-08-05T01:12:19.199Z,100769.89
2022-08-05T01:13:59.676Z,100771.32
2022-08-05T01:15:05.127Z,100768.13
2022-08-05T01:16:38.626Z,100768.74
2022-08-05T01:17:54.913Z,100767.98
2022-08-05T01:19:01.804Z,100755.75
2022-08-05T01:20:06.135Z,100760.65
2022-08-05T01:21:13.055Z,100765.8
2022-08-05T01:22:41.411Z,100757.06
2022-08-05T01:23:54.177Z,100760.17
2022-08-05T01:25:05.692Z,100762.05
2022-08-05T01:26:10.818Z,100755.47
2022-08-05T01:27:22.181Z,100755.88
2022-08-05T01:28:26.660Z,100749.37
2022-08-05T01:29:31.751Z,100750.48
2022-08-05T01:30:39.354Z,100749.46
2022-08-05T01:31:55.806Z,100755.39
2022-08-05T01:33:03.109Z,100751.09
2022-08-05T01:34:09.531Z,100753.39
2022-08-05T01:35:54.182Z,100753.39
2022-08-05T01:37:03.086Z,100756.91
2022-08-05T01:38:07.907Z,100753.47
2022-08-05T01:39:48.206Z,100759.56
2022-08-05T01:40:53.324Z,100751.47
2022-08-05T01:41:57.975Z,100751.89
2022-08-05T01:43:04.719Z,100750.13
2022-08-05T01:44:35.619Z,100754.87
2022-08-05T01:45:44.292Z,100754.26
2022-08-05T01:47:06.763Z,100751.47
2022-08-05T01:48:17.622Z,100751.71
2022-08-05T01:49:24.929Z,100748.93
2022-08-05T01:51:14.014Z,100746.81
2022-08-05T01:52:20.111Z,100746.08
2022-08-05T01:53:59.844Z,100746.48
2022-08-05T01:55:07.332Z,100744.81
2022-08-05T01:56:13.916Z,100747.84
2022-08-05T01:59:35.765Z,100739.42
2022-08-05T02:00:41.688Z,100734.03
2022-08-05T02:01:49.984Z,100734.14
2022-08-05T02:02:56.004Z,100726.95
2022-08-05T02:04:01.015Z,100737.34
2022-08-05T02:05:12.753Z,100731.45
2022-08-05T02:06:38.871Z,100731.13
2022-08-05T02:08:02.154Z,100735.17
2022-08-05T02:09:06.810Z,100731
2022-08-05T02:10:18.215Z,100728.92
2022-08-05T02:11:34.647Z,100732.88
2022-08-05T02:12:51.917Z,100725.52
2022-08-05T02:13:56.301Z,100728.42
2022-08-05T02:15:04.085Z,100736.28
2022-08-05T02:16:17.306Z,100730.55
2022-08-05T02:18:34.718Z,100740.98
2022-08-05T02:19:48.274Z,100733.75
2022-08-05T02:20:53.101Z,100736.3
2022-08-05T02:22:02.226Z,100727.5
2022-08-05T02:23:09.976Z,100736.7
2022-08-05T02:24:19.044Z,100736.7
2022-08-05T02:25:49.647Z,100734.94
2022-08-05T02:26:55.874Z,100732.98
2022-08-05T02:28:01.594Z,100725.33
2022-08-05T02:29:24.219Z,100727.79
2022-08-05T02:31:05.373Z,100720.96
2022-08-05T02:32:29.469Z,100722.72
2022-08-05T02:33:39.437Z,100720.84
2022-08-05T02:34:43.769Z,100722.8
2022-08-05T02:36:02.249Z,100717
2022-08-05T02:37:08.387Z,100720.64
2022-08-05T02:38:20.143Z,100719.7
2022-08-05T02:39:42.426Z,100715.41
2022-08-05T02:40:56.479Z,100714.47
2022-08-05T02:42:02.631Z,100720.2
2022-08-05T02:43:08.372Z,100714.92
2022-08-05T02:44:14.749Z,100716.27
2022-08-05T02:45:25.188Z,100713.73
2022-08-05T02:46:31.758Z,100719.83
2022-08-05T02:48:13.010Z,100719.83
2022-08-05T02:49:22.858Z,100721.18
2022-08-05T02:50:29.555Z,100720.69
2022-08-05T02:52:05.404Z,100721.66
2022-08-05T02:53:16.239Z,100713.83
2022-08-05T02:54:37.692Z,100714.67
2022-08-05T02:56:02.087Z,100712.92
2022-08-05T02:58:09.520Z,100714.59
2022-08-05T02:59:19.510Z,100713
2022-08-05T03:00:31.246Z,100710.63
2022-08-05T03:01:40.479Z,100713
2022-08-05T03:02:49.038Z,100717.83
2022-08-05T03:04:11.814Z,100705.2
2022-08-05T03:06:59.023Z,100706.11
2022-08-05T03:08:10.873Z,100711.3
2022-08-05T03:09:27.293Z,100700.06
2022-08-05T03:11:58.159Z,100706.92
2022-08-05T03:14:09.119Z,100707.42
2022-08-05T03:15:18.258Z,100699.94
2022-08-05T03:16:23.797Z,100699.62
2022-08-05T03:17:31.487Z,100696.42
2022-08-05T03:18:47.349Z,100696.83
2022-08-05T03:19:53.140Z,100699.33
2022-08-05T03:21:01.849Z,100693.2
2022-08-05T03:22:31.839Z,100694.95
2022-08-05T03:23:40.956Z,100701.7
2022-08-05T03:24:52.337Z,100700.88
2022-08-05T03:26:32.183Z,100699.24
2022-08-05T03:28:00.782Z,100696.31
2022-08-05T03:29:05.174Z,100695.89
2022-08-05T03:30:30.336Z,100695.57
2022-08-05T03:32:00.408Z,100699.13
2022-08-05T03:33:07.301Z,100693.28
2022-08-05T03:34:11.832Z,100695.25
2022-08-05T03:35:16.400Z,100698.27
2022-08-05T03:36:31.740Z,100692.26
2022-08-05T03:37:47.574Z,100684.82
2022-08-05T03:38:56.863Z,100689.28
2022-08-05T03:40:06.073Z,100684.41
2022-08-05T03:41:24.671Z,100685.76
2022-08-05T03:42:53.042Z,100684
2022-08-05T03:44:19.756Z,100684
2022-08-05T03:45:24.817Z,100687.72
2022-08-05T03:46:32.502Z,100685.34
2022-08-05T03:47:42.958Z,100686.86
2022-08-05T03:48:47.864Z,100682.41
2022-08-05T03:49:57.501Z,100687.89
2022-08-05T03:55:07.066Z,100687.02
2022-08-05T03:57:44.449Z,100693.06
2022-08-05T03:58:52.213Z,100692.53
2022-08-05T03:59:56.864Z,100694.26
2022-08-05T04:01:01.413Z,100692.5
2022-08-05T04:02:14.902Z,100687.76
2022-08-05T04:04:09.578Z,100693.27
2022-08-05T04:05:15.468Z,100683.7
2022-08-05T04:06:21.545Z,100686.78
2022-08-05T04:07:34.022Z,100684.5
2022-08-05T04:09:02.431Z,100689.16
2022-08-05T04:10:10.557Z,100684.91
2022-08-05T04:11:23.699Z,100678.28
2022-08-05T04:12:55.806Z,100684.61
2022-08-05T04:14:03.281Z,100690.83
2022-08-05T04:15:08.958Z,100690.09
2022-08-05T04:16:32.048Z,100678.56
2022-08-05T04:17:59.918Z,100686.55
2022-08-05T04:19:11.560Z,100685.44
2022-08-05T04:20:17.786Z,100683.96
2022-08-05T04:22:12.402Z,100679.3
2022-08-05T04:24:09.011Z,100672.15
2022-08-05T04:25:58.128Z,100670.89
2022-08-05T04:27:08.587Z,100674.41
2022-08-05T04:28:14.123Z,100674.64
2022-08-05T04:29:20.980Z,100671.86
2022-08-05T04:30:27.520Z,100673.53
2022-08-05T04:31:40.450Z,100676.03
2022-08-05T04:32:46.338Z,100678.48
2022-08-05T04:34:32.215Z,100669.48
2022-08-05T04:36:38.479Z,100669.66
2022-08-05T04:38:06.513Z,100673.95
2022-08-05T04:39:12.487Z,100670.19
2022-08-05T04:40:20.399Z,100677.29
2022-08-05T04:41:38.869Z,100675.33
2022-08-05T04:42:47.278Z,100672.55
2022-08-05T04:43:53.982Z,100675.66
2022-08-05T04:45:01.940Z,100677.86
2022-08-05T04:46:07.412Z,100681.78
2022-08-05T04:47:21.931Z,100676.51
2022-08-05T04:48:29.000Z,100674.55
2022-08-05T04:50:10.812Z,100677.03
2022-08-05T04:51:15.952Z,100675.31
2022-08-05T04:52:20.463Z,100670.77
2022-08-05T04:53:24.907Z,100675.99
2022-08-05T04:54:29.286Z,100670.1
2022-08-05T04:56:34.068Z,100678.31
2022-08-05T04:57:51.513Z,100677.81
2022-08-05T04:58:58.455Z,100673.16
2022-08-05T05:00:25.127Z,100683.66
2022-08-05T05:02:35.904Z,100672.25
2022-08-05T05:03:46.620Z,100675.8
2022-08-05T05:04:52.407Z,100675.27
2022-08-05T05:06:44.607Z,100676.77
2022-08-05T05:08:02.336Z,100678.2
2022-08-05T05:09:07.833Z,100676.48
2022-08-05T05:10:14.521Z,100677.5
2022-08-05T05:11:21.991Z,100675.75
2022-08-05T05:13:04.210Z,100673.59
2022-08-05T05:14:16.955Z,100679.88
2022-08-05T05:16:02.371Z,100678.68
2022-08-05T05:17:11.813Z,100674.95
2022-08-05T05:18:31.294Z,100678.89
2022-08-05T05:19:48.457Z,100672.99
2022-08-05T05:20:54.337Z,100671.64
2022-08-05T05:22:22.468Z,100671.44
2022-08-05T05:24:03.835Z,100678.83
2022-08-05T05:25:18.192Z,100674.16
2022-08-05T05:26:33.603Z,100680.91
2022-08-05T05:27:53.831Z,100674.16
2022-08-05T05:29:00.465Z,100675.42
2022-08-05T05:30:06.435Z,100679.3
2022-08-05T05:32:34.346Z,100672.64
2022-08-05T05:34:02.892Z,100665.81
2022-08-05T05:35:07.265Z,100667.04
2022-08-05T05:36:15.701Z,100666.34
2022-08-05T05:37:22.749Z,100664.28
2022-08-05T05:39:05.378Z,100660.77
2022-08-05T05:40:15.982Z,100662.52
2022-08-05T05:41:24.257Z,100659.83
2022-08-05T05:42:48.117Z,100665.84
2022-08-05T05:44:00.411Z,100668.92
2022-08-05T05:45:05.145Z,100663.28
2022-08-05T05:46:19.918Z,100664.69
2022-08-05T05:48:05.282Z,100667.33
2022-08-05T05:49:23.828Z,100665.81
2022-08-05T05:50:28.338Z,100664.34
2022-08-05T05:51:51.314Z,100661.7
2022-08-05T05:53:01.216Z,100660.56
2022-08-05T05:54:51.351Z,100657.27
2022-08-05T05:56:03.098Z,100659.86
2022-08-05T05:57:19.148Z,100656.16
2022-08-05T05:58:32.553Z,100657.34
2022-08-05T05:59:41.471Z,100661.17
2022-08-05T06:00:47.645Z,100659.65
2022-08-05T06:01:58.232Z,100663.08
2022-08-05T06:03:03.349Z,100668.39
2022-08-05T06:05:17.476Z,100664.22
2022-08-05T06:06:31.339Z,100669.53
2022-08-05T06:07:43.242Z,100666.55
2022-08-05T06:09:08.710Z,100664.93
2022-08-05T06:10:24.711Z,100668.72
2022-08-05T06:11:40.780Z,100669.77
2022-08-05T06:13:02.338Z,100670.68
2022-08-05T06:14:07.546Z,100669.04
2022-08-05T06:15:24.989Z,100669.92
2022-08-05T06:17:54.502Z,100668.19
2022-08-05T06:19:05.575Z,100658.3
2022-08-05T06:20:22.667Z,100668.22
2022-08-05T06:21:38.090Z,100670.45
2022-08-05T06:22:53.069Z,100671.97
2022-08-05T06:23:57.434Z,100670.45
2022-08-05T06:26:21.770Z,100677.37
2022-08-05T06:28:21.038Z,100673.61
2022-08-05T06:30:04.103Z,100674.64
2022-08-05T06:31:32.247Z,100678.45
2022-08-05T06:32:38.474Z,100672.94
2022-08-05T06:34:08.858Z,100674.08
2022-08-05T06:36:08.106Z,100671.3
2022-08-05T06:37:15.738Z,100672.23
2022-08-05T06:39:04.456Z,100674.11
2022-08-05T06:40:10.509Z,100664.66
2022-08-05T06:41:17.066Z,100661.38
2022-08-05T06:42:21.439Z,100664.17
2022-08-05T06:44:00.697Z,100662.73
2022-08-05T06:45:09.673Z,100664.05
2022-08-05T06:47:21.709Z,100658.3
2022-08-05T06:50:05.590Z,100660.77
2022-08-05T06:51:12.308Z,100660.87
2022-08-05T06:52:40.514Z,100665.95
2022-08-05T06:54:03.159Z,100658.97
2022-08-05T06:55:07.836Z,100657.95
2022-08-05T06:56:27.303Z,100658.16
2022-08-05T06:58:20.563Z,100657.18
2022-08-05T06:59:56.439Z,100659.53
2022-08-05T07:01:02.473Z,100653.98
2022-08-05T07:02:06.992Z,100650.84
2022-08-05T07:03:12.198Z,100650.77
2022-08-05T07:04:20.286Z,100654.02
2022-08-05T07:05:41.095Z,100650.91
2022-08-05T07:06:45.697Z,100652.05
2022-08-05T07:07:54.631Z,100651.44
2022-08-05T07:09:00.208Z,100648.97
2022-08-05T07:10:08.524Z,100650
2022-08-05T07:11:16.630Z,100646.42
2022-08-05T07:12:29.022Z,100645.39
2022-08-05T07:13:59.641Z,100646.04
2022-08-05T07:15:04.566Z,100652.58
2022-08-05T07:18:07.317Z,100636.89
2022-08-05T07:20:31.908Z,100644.86
2022-08-05T07:22:02.619Z,100648.52
2022-08-05T07:23:08.203Z,100647.47
2022-08-05T07:24:34.465Z,100645.83
2022-08-05T07:25:57.964Z,100643.16
2022-08-05T07:27:03.976Z,100645.88
2022-08-05T07:28:18.503Z,100642.04
2022-08-05T07:30:30.928Z,100640.92
2022-08-05T07:31:55.515Z,100643.23
2022-08-05T07:33:00.191Z,100643.12
2022-08-05T07:34:04.578Z,100648.02
2022-08-05T07:36:21.357Z,100644.47
2022-08-05T07:37:37.740Z,100645.44
2022-08-05T07:38:56.071Z,100645.66
2022-08-05T07:40:33.427Z,100642.64
2022-08-05T07:42:15.577Z,100644.16
2022-08-05T07:43:35.936Z,100636.47
2022-08-05T07:44:41.825Z,100639.08
2022-08-05T07:45:59.341Z,100644.57
2022-08-05T07:47:09.033Z,100642.81
2022-08-05T07:49:05.715Z,100644.23
2022-08-05T07:50:11.390Z,100637.6
2022-08-05T07:51:41.208Z,100642.68
2022-08-05T07:52:59.184Z,100638.92
2022-08-05T07:54:04.356Z,100635.73
2022-08-05T07:56:06.009Z,100637.28
2022-08-05T07:58:59.099Z,100641.77
2022-08-05T08:00:03.738Z,100640.63
2022-08-05T08:01:16.644Z,100648.84
2022-08-05T08:03:14.435Z,100645.44
2022-08-05T08:04:38.514Z,100644.72
2022-08-05T08:05:50.328Z,100644.81
2022-08-05T08:06:55.846Z,100646.89
2022-08-05T08:08:01.844Z,100649.09
2022-08-05T08:09:06.607Z,100646.72
2022-08-05T08:10:10.985Z,100651.82
2022-08-05T08:11:17.131Z,100647.68
2022-08-05T08:12:51.234Z,100655.56
2022-08-05T08:14:02.154Z,100652.38
2022-08-05T08:15:16.846Z,100648.02
2022-08-05T08:16:52.490Z,100646.76
2022-08-05T08:18:05.020Z,100645.8
2022-08-05T08:20:43.115Z,100641.28
2022-08-05T08:22:10.005Z,100638.28
2022-08-05T08:24:05.216Z,100630.41
2022-08-05T08:25:17.897Z,100634.81
2022-08-05T08:27:08.036Z,100631.94
2022-08-05T08:28:55.137Z,100636.48
2022-08-05T08:30:49.626Z,100626.84
2022-08-05T08:31:54.321Z,100634.5
2022-08-05T08:33:02.464Z,100629.09
2022-08-05T08:34:13.162Z,100632.42
2022-08-05T08:35:20.267Z,100627.42
2022-08-05T08:36:57.825Z,100633.61
2022-08-05T08:38:11.782Z,100634.75
2022-08-05T08:39:50.455Z,100629.8
2022-08-05T08:40:56.676Z,100627.3
2022-08-05T08:42:06.510Z,100623.86
2022-08-05T08:45:27.318Z,100628.57
2022-08-05T08:46:34.684Z,100626.72
2022-08-05T08:48:22.612Z,100623.7
2022-08-05T08:52:13.061Z,100613.95
2022-08-05T08:53:29.957Z,100618.95
2022-08-05T08:54:38.057Z,100616.05
2022-08-05T08:56:06.572Z,100620.52
2022-08-05T08:57:13.372Z,100614.98
2022-08-05T08:58:43.718Z,100613.8
2022-08-05T08:59:52.879Z,100611.18
2022-08-05T09:01:02.039Z,100605.9
2022-08-05T09:02:09.694Z,100610.15
2022-08-05T09:03:19.145Z,100614.02
2022-08-05T09:04:31.687Z,100608.8
2022-08-05T09:06:11.489Z,100614.75
2022-08-05T09:07:39.637Z,100605.09
2022-08-05T09:09:02.899Z,100609.75
2022-08-05T09:10:08.185Z,100608.81
2022-08-05T09:11:14.733Z,100616.7
2022-08-05T09:12:27.165Z,100612.88
2022-08-05T09:14:55.304Z,100610.03
2022-08-05T09:16:16.844Z,100604.7
2022-08-05T09:17:45.805Z,100606.98
2022-08-05T09:18:56.645Z,100604.78
2022-08-05T09:20:06.448Z,100603.24
2022-08-05T09:22:23.578Z,100605.97
2022-08-05T09:23:44.421Z,100606.91
2022-08-05T09:24:50.077Z,100609.07
2022-08-05T09:26:06.389Z,100603.66
2022-08-05T09:28:03.631Z,100599.2
2022-08-05T09:29:10.131Z,100602.41
2022-08-05T09:30:24.515Z,100601.37
2022-08-05T09:32:46.631Z,100600.88
2022-08-05T09:33:52.120Z,100600.69
2022-08-05T09:34:59.581Z,100594.66
2022-08-05T09:36:17.679Z,100594.33
2022-08-05T09:38:27.204Z,100595.47
2022-08-05T09:39:52.151Z,100590.15
2022-08-05T09:41:00.361Z,100585.05
2022-08-05T09:42:11.346Z,100588.61
2022-08-05T09:43:42.380Z,100592.98
2022-08-05T09:44:52.729Z,100582.89
2022-08-05T09:47:13.981Z,100594.66
2022-08-05T09:48:21.989Z,100589.7
2022-08-05T09:50:03.285Z,100588.04
2022-08-05T09:51:16.143Z,100593.55
2022-08-05T09:52:22.745Z,100590.39
2022-08-05T09:54:00.342Z,100591.52
2022-08-05T09:56:03.890Z,100589.3
2022-08-05T09:57:24.286Z,100585.34
2022-08-05T09:58:30.296Z,100580.47
2022-08-05T09:59:37.079Z,100581.67
2022-08-05T10:00:41.628Z,100579.73
2022-08-05T10:01:46.814Z,100572.95
2022-08-05T10:02:51.347Z,100577.08
2022-08-05T10:04:00.790Z,100576.09
2022-08-05T10:05:08.987Z,100573.15
2022-08-05T10:06:17.140Z,100576.34
2022-08-05T10:08:38.436Z,100570.38
2022-08-05T10:10:15.803Z,100573.48
2022-08-05T10:11:36.355Z,100570.45
2022-08-05T10:12:50.775Z,100571.58
2022-08-05T10:13:56.399Z,100572.62
2022-08-05T10:15:02.507Z,100570.95
2022-08-05T10:16:08.185Z,100571.07
2022-08-05T10:17:39.985Z,100572.6
2022-08-05T10:18:59.862Z,100569.49
2022-08-05T10:20:13.201Z,100568.32
2022-08-05T10:21:24.015Z,100566.88
2022-08-05T10:22:34.913Z,100564.27
2022-08-05T10:24:02.437Z,100561.57
2022-08-05T10:25:15.511Z,100559.94
2022-08-05T10:26:31.556Z,100558.58
2022-08-05T10:28:13.752Z,100560.02
2022-08-05T10:32:49.787Z,100557.5
2022-08-05T10:34:08.998Z,100554.29
2022-08-05T10:35:13.482Z,100560.6
2022-08-05T10:36:25.798Z,100558.43
2022-08-05T10:37:45.518Z,100556.67
2022-08-05T10:38:52.453Z,100558.43
2022-08-05T10:40:16.839Z,100554.16
2022-08-05T10:41:26.469Z,100553.21
2022-08-05T10:42:51.447Z,100552.39
2022-08-05T10:43:56.606Z,100554.77
2022-08-05T10:45:30.503Z,100553.83
2022-08-05T10:46:46.412Z,100548.96
2022-08-05T10:48:40.694Z,100550.31
2022-08-05T10:50:36.902Z,100549.28
2022-08-05T10:52:02.465Z,100554.86
2022-08-05T10:53:08.602Z,100548.11
2022-08-05T10:54:32.724Z,100552.57
2022-08-05T10:56:14.801Z,100551.22
2022-08-05T10:57:33.790Z,100555.4
2022-08-05T10:58:51.711Z,100548.52
2022-08-05T11:00:12.114Z,100552.48
2022-08-05T11:02:03.896Z,100550
2022-08-05T11:03:27.020Z,100550.5
2022-08-05T11:04:36.534Z,100543.65
2022-08-05T11:05:44.508Z,100541.36
2022-08-05T11:06:57.134Z,100542.21
2022-08-05T11:08:21.893Z,100541.45
2022-08-05T11:09:47.578Z,100540.95
2022-08-05T11:11:07.780Z,100539.91
2022-08-05T11:12:20.204Z,100541.04
2022-08-05T11:13:27.160Z,100533.56
2022-08-05T11:15:12.116Z,100537.93
2022-08-05T11:16:48.057Z,100537.84
2022-08-05T11:20:17.737Z,100532.44
2022-08-05T11:21:25.717Z,100537.84
2022-08-05T11:22:30.622Z,100536.58
2022-08-05T11:24:29.901Z,100534.2
2022-08-05T11:26:09.457Z,100526.5
2022-08-05T11:27:14.400Z,100528.8
2022-08-05T11:28:18.763Z,100532.53
2022-08-05T11:29:26.921Z,100530.33
2022-08-05T11:30:33.122Z,100526.19
2022-08-05T11:32:01.031Z,100529.09
2022-08-05T11:33:20.886Z,100523.7
2022-08-05T11:34:27.305Z,100525.14
2022-08-05T11:36:07.815Z,100535.09
2022-08-05T11:38:45.553Z,100524.41
2022-08-05T11:40:04.062Z,100526.17
2022-08-05T11:42:02.109Z,100534.69
2022-08-05T11:43:10.914Z,100534.69
2022-08-05T11:44:52.881Z,100523.06
2022-08-05T11:46:33.373Z,100536.03
2022-08-05T11:47:50.612Z,100533.02
2022-08-05T11:49:00.403Z,100528.55
2022-08-05T11:50:06.014Z,100527.43
2022-08-05T11:51:11.926Z,100534.77
2022-08-05T11:52:59.014Z,100527.61
2022-08-05T11:54:14.883Z,100531.25
2022-08-05T11:55:36.203Z,100527.61
2022-08-05T11:56:42.193Z,100527.52
2022-08-05T11:58:12.386Z,100528.96
2022-08-05T11:59:22.340Z,100524.5
2022-08-05T12:00:30.321Z,100536.66
2022-08-05T12:01:34.900Z,100526.67
2022-08-05T12:02:45.684Z,100527.61
2022-08-05T12:03:56.798Z,100527.93
2022-08-05T12:05:06.584Z,100520.86
2022-08-05T12:06:21.378Z,100531.98
2022-08-05T12:08:11.614Z,100524.41
2022-08-05T12:09:53.053Z,100521
2022-08-05T12:10:58.843Z,100516.32
2022-08-05T12:12:10.715Z,100521.19
2022-08-05T12:13:18.597Z,100520.28
2022-08-05T12:14:53.175Z,100517.14
2022-08-05T12:16:00.819Z,100526.41
2022-08-05T12:18:03.468Z,100519.25
2022-08-05T12:20:33.631Z,100510.83
2022-08-05T12:21:40.397Z,100508.94
2022-08-05T12:22:47.382Z,100507.59
2022-08-05T12:23:56.244Z,100505.3
2022-08-05T12:25:03.443Z,100505.74
2022-08-05T12:26:08.760Z,100503.45
2022-08-05T12:27:26.232Z,100503.36
2022-08-05T12:28:38.579Z,100511.02
2022-08-05T12:29:56.889Z,100505.63
2022-08-05T12:31:03.231Z,100505.13
2022-08-05T12:32:10.541Z,100511.14
2022-08-05T12:33:36.101Z,100510.93
2022-08-05T12:34:42.258Z,100509.17
2022-08-05T12:35:49.032Z,100514.58
2022-08-05T12:36:57.267Z,100508.32
2022-08-05T12:38:04.028Z,100511.34
2022-08-05T12:39:09.679Z,100502.01
2022-08-05T12:40:28.767Z,100504.7
2022-08-05T12:41:35.636Z,100496.16
2022-08-05T12:42:49.837Z,100501.06
2022-08-05T12:43:54.214Z,100502.92
2022-08-05T12:44:58.932Z,100489.32
2022-08-05T12:46:03.601Z,100489.85
2022-08-05T12:47:13.506Z,100489.62
2022-08-05T12:48:32.833Z,100488.37
2022-08-05T12:50:07.294Z,100491.38
2022-08-05T12:52:19.816Z,100489.41
2022-08-05T12:53:39.846Z,100494.63
2022-08-05T12:54:45.562Z,100486.12
2022-08-05T12:55:53.082Z,100485.99
2022-08-05T12:57:02.202Z,100485.99
2022-08-05T12:58:54.011Z,100482.47
2022-08-05T13:02:07.239Z,100492.96
2022-08-05T13:03:15.987Z,100495.89
2022-08-05T13:04:22.383Z,100499
2022-08-05T13:05:38.543Z,100489.95
2022-08-05T13:06:53.072Z,100486.44
2022-08-05T13:08:01.346Z,100489.02
2022-08-05T13:09:09.679Z,100481.84
2022-08-05T13:10:21.268Z,100478.2
2022-08-05T13:12:04.119Z,100485.49
2022-08-05T13:14:07.602Z,100484.05
2022-08-05T13:15:36.280Z,100485.28
2022-08-05T13:16:57.518Z,100482.7
2022-08-05T13:18:03.071Z,100479.05
2022-08-05T13:19:07.423Z,100474.47
2022-08-05T13:20:12.561Z,100480.31
2022-08-05T13:21:22.528Z,100472.62
2022-08-05T13:22:52.157Z,100478.02
2022-08-05T13:23:56.499Z,100478.43
2022-08-05T13:25:07.921Z,100476.14
2022-08-05T13:26:54.608Z,100479.69
2022-08-05T13:27:59.985Z,100473.88
2022-08-05T13:29:06.200Z,100465.33
2022-08-05T13:30:39.003Z,100471.59
2022-08-05T13:32:05.817Z,100478.25
2022-08-05T13:34:23.657Z,100471.5
2022-08-05T13:35:51.159Z,100465.56
2022-08-05T13:36:56.102Z,100466.91
2022-08-05T13:38:06.077Z,100465.47
2022-08-05T13:40:27.540Z,100461.91
2022-08-05T13:41:56.845Z,100461.91
2022-08-05T13:43:01.302Z,100459.12
2022-08-05T13:44:07.005Z,100463.7
2022-08-05T13:45:21.799Z,100452.46
2022-08-05T13:47:02.102Z,100455.92
2022-08-05T13:49:00.771Z,100451.34
2022-08-05T13:50:16.329Z,100455.8
2022-08-05T13:51:21.825Z,100457.55
2022-08-05T13:52:30.245Z,100455.7
2022-08-05T13:53:48.731Z,100445.72
2022-08-05T13:54:54.512Z,100452.16
2022-08-05T13:56:03.086Z,100445.84
2022-08-05T13:57:21.567Z,100444.8
2022-08-05T13:58:32.124Z,100446.97
2022-08-05T13:59:36.863Z,100447.91
2022-08-05T14:01:05.264Z,100445.39
2022-08-05T14:02:20.926Z,100438.14
2022-08-05T14:03:33.998Z,100452.59
2022-08-05T14:04:41.836Z,100447.91
2022-08-05T14:06:27.720Z,100441.06
2022-08-05T14:08:08.906Z,100440.22
2022-08-05T14:09:31.211Z,100436.58
2022-08-05T14:10:38.403Z,100442.51
2022-08-05T14:12:17.904Z,100437.42
2022-08-05T14:13:36.440Z,100445.12
2022-08-05T14:14:42.822Z,100446.16
2022-08-05T14:16:11.969Z,100443.86
2022-08-05T14:17:22.591Z,100440.13
2022-08-05T14:18:29.213Z,100443.33
2022-08-05T14:19:59.714Z,100440.13
2022-08-05T14:22:12.035Z,100433.28
2022-08-05T14:23:28.070Z,100436.3
2022-08-05T14:24:41.201Z,100433.16
2022-08-05T14:25:57.848Z,100436.8
2022-08-05T14:27:19.073Z,100430.45
2022-08-05T14:28:28.314Z,100434.09
2022-08-05T14:29:32.805Z,100435.45
2022-08-05T14:30:38.067Z,100434.31
2022-08-05T14:32:14.995Z,100430.14
2022-08-05T14:34:00.452Z,100432.11
2022-08-05T14:35:11.601Z,100426.2
2022-08-05T14:36:16.138Z,100430.27
2022-08-05T14:37:50.999Z,100424.86
2022-08-05T14:38:59.212Z,100413.83
2022-08-05T14:40:07.380Z,100436.08
2022-08-05T14:41:17.746Z,100428.91
2022-08-05T14:42:23.121Z,100431.94
2022-08-05T14:44:09.401Z,100434.41
2022-08-05T14:45:25.177Z,100428.51
2022-08-05T14:46:31.715Z,100431.3
2022-08-05T14:48:08.614Z,100429.41
2022-08-05T14:50:04.834Z,100423.52
2022-08-05T14:51:22.855Z,100426.22
2022-08-05T14:52:58.556Z,100429.33
2022-08-05T14:54:30.407Z,100426.84
2022-08-05T14:55:56.381Z,100429.55
2022-08-05T14:57:00.738Z,100423.3
2022-08-05T14:58:15.118Z,100426
2022-08-05T14:59:22.219Z,100426.84
2022-08-05T15:00:30.408Z,100419.15
2022-08-05T15:01:50.497Z,100425.59
2022-08-05T15:02:58.174Z,100423.3
2022-08-05T15:04:03.992Z,100425.09
2022-08-05T15:05:14.737Z,100419.56
2022-08-05T15:06:20.730Z,100422.58
2022-08-05T15:08:38.195Z,100411.58
2022-08-05T15:10:10.659Z,100412.8
2022-08-05T15:11:15.770Z,100413.56
2022-08-05T15:12:20.351Z,100409.7
2022-08-05T15:13:50.195Z,100410.02
2022-08-05T15:14:57.148Z,100410.45
2022-08-05T15:16:01.528Z,100410.45
2022-08-05T15:17:09.720Z,100404.52
2022-08-05T15:18:50.122Z,100405.23
2022-08-05T15:19:57.978Z,100406.72
2022-08-05T15:21:09.081Z,100402.22
2022-08-05T15:22:16.860Z,100406.9
2022-08-05T15:23:24.797Z,100408.98
2022-08-05T15:24:30.380Z,100407.94
2022-08-05T15:25:55.159Z,100405.55
2022-08-05T15:27:10.150Z,100397.98
2022-08-05T15:28:16.186Z,100404.2
2022-08-05T15:29:22.979Z,100408.38
2022-08-05T15:30:33.486Z,100400.14
2022-08-05T15:31:41.629Z,100400.69
2022-08-05T15:32:47.728Z,100402.66
2022-08-05T15:34:19.586Z,100407.03
2022-08-05T15:35:46.354Z,100407.84
2022-08-05T15:36:54.283Z,100404.33
2022-08-05T15:38:41.128Z,100407.03
2022-08-05T15:41:21.769Z,100397.67
2022-08-05T15:43:07.983Z,100398.92
2022-08-05T15:44:23.327Z,100403.48
2022-08-05T15:45:39.541Z,100404.33
2022-08-05T15:46:44.171Z,100400.46
2022-08-05T15:47:48.533Z,100401.31